createdAt,value
2023-01-03T00:02:20.549Z,55.20
2023-01-03T00:04:49.952Z,55.20
2023-01-03T00:07:33.951Z,55.00
2023-01-03T00:10:06.339Z,55.10
2023-01-03T00:12:35.016Z,54.90
2023-01-03T00:15:05.798Z,54.80
2023-01-03T00:17:34.228Z,54.80
2023-01-03T00:20:02.599Z,55.00
2023-01-03T00:22:33.313Z,55.10
2023-01-03T00:25:01.951Z,54.90
2023-01-03T00:27:31.811Z,55.00
2023-01-03T00:30:00.176Z,54.90
2023-01-03T00:32:28.437Z,54.70
2023-01-03T00:35:00.169Z,54.30
2023-01-03T00:37:33.135Z,55.00
2023-01-03T00:40:01.523Z,54.50
2023-01-03T00:42:51.708Z,54.90
2023-01-03T00:45:21.138Z,54.50
2023-01-03T00:47:50.723Z,54.80
2023-01-03T00:50:19.091Z,54.80
2023-01-03T00:52:47.270Z,55.10
2023-01-03T00:55:15.818Z,55.20
2023-01-03T00:57:45.440Z,54.70
2023-01-03T01:00:14.751Z,54.90
2023-01-03T01:02:43.223Z,54.80
2023-01-03T01:05:11.717Z,55.00
2023-01-03T01:07:39.870Z,54.90
2023-01-03T01:10:08.724Z,55.00
2023-01-03T01:12:37.422Z,55.00
2023-01-03T01:15:08.295Z,55.30
2023-01-03T01:17:36.936Z,55.30
2023-01-03T01:20:06.102Z,55.20
2023-01-03T01:22:35.173Z,55.10
2023-01-03T01:25:04.091Z,55.20
2023-01-03T01:27:32.452Z,55.60
2023-01-03T01:30:00.811Z,55.30
2023-01-03T01:32:31.872Z,55.50
2023-01-03T01:34:59.993Z,55.30
2023-01-03T01:37:28.441Z,55.00
2023-01-03T01:39:56.604Z,55.50
2023-01-03T01:42:50.636Z,55.60
2023-01-03T01:45:18.971Z,55.40
2023-01-03T01:47:54.251Z,55.10
2023-01-03T01:50:26.508Z,55.30
2023-01-03T01:52:58.632Z,55.10
2023-01-03T01:55:29.121Z,55.10
2023-01-03T01:57:58.059Z,55.00
2023-01-03T02:00:26.270Z,55.40
2023-01-03T02:02:57.364Z,55.10
2023-01-03T02:05:27.322Z,55.20
2023-01-03T02:07:56.640Z,55.10
2023-01-03T02:10:36.659Z,55.20
2023-01-03T02:13:11.591Z,55.00
2023-01-03T02:15:53.100Z,55.20
2023-01-03T02:18:36.743Z,55.40
2023-01-03T02:21:35.138Z,54.70
2023-01-03T02:24:32.392Z,56.60
2023-01-03T02:27:08.492Z,56.10
2023-01-03T02:30:13.265Z,56.40
2023-01-03T02:32:48.637Z,56.00
2023-01-03T02:35:21.117Z,56.00
2023-01-03T02:37:58.013Z,55.80
2023-01-03T02:40:32.817Z,55.90
2023-01-03T02:43:07.572Z,56.10
2023-01-03T02:45:48.829Z,56.00
2023-01-03T02:48:27.221Z,56.20
2023-01-03T02:50:58.558Z,56.10
2023-01-03T02:53:30.628Z,56.40
2023-01-03T02:56:02.720Z,56.00
2023-01-03T02:58:35.270Z,56.00
2023-01-03T03:01:06.674Z,55.90
2023-01-03T03:03:38.686Z,56.30
2023-01-03T03:06:12.496Z,55.80
2023-01-03T03:08:40.890Z,55.90
2023-01-03T03:11:26.945Z,55.90
2023-01-03T03:14:01.369Z,56.00
2023-01-03T03:16:49.174Z,56.00
2023-01-03T03:19:45.561Z,55.80
2023-01-03T03:22:41.524Z,56.10
2023-01-03T03:25:13.847Z,56.30
2023-01-03T03:28:03.206Z,55.90
2023-01-03T03:30:34.230Z,55.60
2023-01-03T03:33:06.222Z,55.70
2023-01-03T03:35:51.595Z,55.70
2023-01-03T03:38:25.917Z,55.90
2023-01-03T03:41:20.765Z,55.50
2023-01-03T03:44:22.606Z,55.70
2023-01-03T03:46:56.537Z,55.50
2023-01-03T03:49:41.249Z,55.50
2023-01-03T03:52:15.648Z,55.70
2023-01-03T03:54:49.716Z,55.70
2023-01-03T03:57:23.339Z,55.70
2023-01-03T03:59:55.198Z,55.80
2023-01-03T04:02:25.459Z,55.70
2023-01-03T04:04:58.089Z,56.00
2023-01-03T04:07:27.966Z,55.80
2023-01-03T04:09:56.576Z,56.10
2023-01-03T04:12:24.657Z,56.00
2023-01-03T04:14:53.133Z,56.10
2023-01-03T04:17:21.706Z,56.10
2023-01-03T04:19:49.928Z,56.60
2023-01-03T04:22:18.268Z,56.50
2023-01-03T04:24:47.816Z,56.10
2023-01-03T04:27:16.312Z,56.20
2023-01-03T04:29:44.540Z,56.70
2023-01-03T04:32:13.030Z,56.30
2023-01-03T04:34:41.385Z,56.50
2023-01-03T04:37:10.086Z,56.70
2023-01-03T04:39:38.466Z,56.40
2023-01-03T04:42:28.882Z,56.30
2023-01-03T04:44:56.277Z,56.20
2023-01-03T04:47:24.637Z,56.40
2023-01-03T04:49:52.759Z,56.20
2023-01-03T04:52:20.986Z,56.70
2023-01-03T04:54:49.585Z,56.20
2023-01-03T04:57:19.435Z,56.60
2023-01-03T04:59:47.609Z,56.10
2023-01-03T05:02:16.253Z,56.40
2023-01-03T05:04:44.628Z,56.30
2023-01-03T05:07:13.354Z,56.60
2023-01-03T05:09:41.888Z,56.70
2023-01-03T05:12:12.438Z,56.10
2023-01-03T05:14:42.312Z,56.50
2023-01-03T05:17:10.914Z,56.60
2023-01-03T05:19:59.150Z,56.60
2023-01-03T05:22:45.630Z,56.30
2023-01-03T05:25:31.289Z,56.40
2023-01-03T05:27:59.934Z,56.20
2023-01-03T05:30:29.618Z,56.00
2023-01-03T05:32:59.224Z,56.30
2023-01-03T05:35:27.929Z,56.40
2023-01-03T05:37:56.920Z,56.70
2023-01-03T05:40:25.082Z,56.50
2023-01-03T05:42:53.308Z,56.50
2023-01-03T05:45:25.540Z,56.80
2023-01-03T05:47:58.093Z,56.50
2023-01-03T05:50:26.497Z,56.70
2023-01-03T05:52:54.952Z,56.80
2023-01-03T05:55:24.048Z,56.90
2023-01-03T05:57:53.160Z,56.60
2023-01-03T06:00:21.867Z,57.00
2023-01-03T06:02:50.306Z,56.60
2023-01-03T06:05:19.909Z,56.40
2023-01-03T06:07:48.528Z,56.90
2023-01-03T06:10:16.843Z,56.90
2023-01-03T06:12:45.094Z,57.20
2023-01-03T06:15:13.119Z,56.90
2023-01-03T06:17:57.725Z,57.00
2023-01-03T06:20:29.425Z,56.90
2023-01-03T06:22:58.056Z,56.90
2023-01-03T06:25:26.261Z,56.90
2023-01-03T06:27:54.565Z,57.20
2023-01-03T06:30:22.710Z,57.40
2023-01-03T06:32:51.185Z,58.00
2023-01-03T06:35:19.386Z,57.60
2023-01-03T06:37:49.352Z,57.30
2023-01-03T06:40:19.276Z,57.10
2023-01-03T06:42:47.679Z,57.20
2023-01-03T06:45:34.488Z,56.90
2023-01-03T06:48:23.853Z,56.80
2023-01-03T06:51:10.079Z,56.90
2023-01-03T06:53:42.204Z,56.80
2023-01-03T06:56:10.687Z,56.70
2023-01-03T06:58:38.952Z,56.80
2023-01-03T07:01:07.754Z,56.70
2023-01-03T07:03:36.096Z,56.40
2023-01-03T07:06:04.386Z,56.80
2023-01-03T07:08:33.128Z,56.80
2023-01-03T07:11:02.739Z,56.80
2023-01-03T07:13:48.652Z,56.70
2023-01-03T07:16:18.018Z,56.60
2023-01-03T07:18:52.854Z,56.70
2023-01-03T07:21:24.014Z,56.70
2023-01-03T07:23:53.896Z,56.40
2023-01-03T07:26:25.255Z,56.60
2023-01-03T07:28:54.176Z,56.60
2023-01-03T07:31:22.586Z,56.60
2023-01-03T07:33:53.024Z,56.70
2023-01-03T07:36:22.555Z,56.60
2023-01-03T07:38:50.662Z,56.70
2023-01-03T07:41:19.494Z,56.50
2023-01-03T07:43:49.613Z,56.70
2023-01-03T07:46:19.538Z,56.50
2023-01-03T07:48:49.658Z,56.40
2023-01-03T07:51:20.128Z,56.60
2023-01-03T07:53:51.267Z,56.50
2023-01-03T07:56:20.368Z,56.70
2023-01-03T07:58:51.917Z,56.10
2023-01-03T08:01:22.418Z,56.50
2023-01-03T08:03:50.973Z,56.30
2023-01-03T08:06:21.528Z,56.20
2023-01-03T08:09:10.743Z,56.30
2023-01-03T08:11:57.034Z,56.30
2023-01-03T08:14:27.488Z,56.80
2023-01-03T08:16:57.329Z,56.60
2023-01-03T08:19:26.288Z,56.60
2023-01-03T08:21:54.590Z,56.60
2023-01-03T08:24:22.755Z,56.50
2023-01-03T08:26:50.998Z,56.50
2023-01-03T08:29:19.201Z,56.60
2023-01-03T08:31:53.801Z,56.70
2023-01-03T08:34:29.306Z,56.70
2023-01-03T08:37:03.276Z,56.70
2023-01-03T08:39:36.631Z,56.70
2023-01-03T08:42:09.534Z,56.60
2023-01-03T08:44:39.364Z,56.80
2023-01-03T08:47:10.373Z,56.80
2023-01-03T08:49:39.968Z,56.90
2023-01-03T08:52:08.724Z,57.00
2023-01-03T08:54:36.839Z,56.90
2023-01-03T08:57:05.739Z,56.80
2023-01-03T08:59:33.922Z,57.00
2023-01-03T09:02:03.211Z,57.30
2023-01-03T09:04:32.969Z,57.00
2023-01-03T09:07:01.720Z,57.00
2023-01-03T09:09:29.882Z,57.30
2023-01-03T09:11:58.411Z,57.20
2023-01-03T09:14:27.133Z,57.20
2023-01-03T09:16:59.151Z,57.50
2023-01-03T09:19:27.368Z,57.20
2023-01-03T09:21:57.052Z,57.60
2023-01-03T09:24:25.412Z,56.90
2023-01-03T09:26:54.947Z,57.20
2023-01-03T09:29:23.419Z,57.00
2023-01-03T09:31:52.042Z,57.30
2023-01-03T09:34:20.799Z,56.90
2023-01-03T09:36:49.531Z,57.20
2023-01-03T09:39:19.281Z,57.10
2023-01-03T09:42:09.256Z,57.30
2023-01-03T09:44:39.061Z,56.90
2023-01-03T09:47:07.845Z,56.80
2023-01-03T09:49:57.440Z,56.60
2023-01-03T09:52:45.367Z,57.00
2023-01-03T09:55:43.907Z,56.70
2023-01-03T09:58:33.115Z,56.50
2023-01-03T10:01:32.143Z,56.60
2023-01-03T10:04:11.620Z,56.50
2023-01-03T10:06:50.395Z,56.30
2023-01-03T10:09:29.047Z,56.70
2023-01-03T10:12:09.661Z,56.50
2023-01-03T10:14:50.242Z,56.70
2023-01-03T10:17:27.641Z,56.30
2023-01-03T10:20:31.038Z,55.10
2023-01-03T10:23:02.854Z,54.80
2023-01-03T10:25:31.522Z,54.70
2023-01-03T10:28:12.748Z,54.30
2023-01-03T10:31:00.720Z,54.70
2023-01-03T10:33:35.202Z,54.60
2023-01-03T10:36:03.527Z,54.50
2023-01-03T10:38:35.270Z,54.30
2023-01-03T10:41:16.796Z,54.50
2023-01-03T10:43:56.646Z,54.40
2023-01-03T10:46:28.077Z,54.30
2023-01-03T10:51:56.579Z,54.30
2023-01-03T10:54:31.112Z,54.50
2023-01-03T10:56:59.542Z,54.60
2023-01-03T10:59:31.007Z,54.40
2023-01-03T11:02:02.484Z,54.20
2023-01-03T11:04:32.310Z,54.20
2023-01-03T11:07:05.219Z,54.20
2023-01-03T11:09:36.782Z,54.20
2023-01-03T11:12:12.691Z,53.50
2023-01-03T11:14:50.778Z,53.30
2023-01-03T11:17:20.993Z,53.60
2023-01-03T11:19:50.522Z,54.10
2023-01-03T11:22:33.805Z,53.80
2023-01-03T11:25:33.754Z,53.50
2023-01-03T11:28:17.703Z,52.90
2023-01-03T11:30:55.182Z,53.40
2023-01-03T11:33:39.762Z,53.10
2023-01-03T11:36:31.376Z,53.20
2023-01-03T11:39:26.807Z,53.10
2023-01-03T11:42:09.755Z,53.10
2023-01-03T11:45:02.905Z,53.30
2023-01-03T11:47:42.399Z,53.10
2023-01-03T11:50:27.662Z,52.90
2023-01-03T11:53:31.020Z,53.80
2023-01-03T11:56:19.631Z,54.70
2023-01-03T11:59:26.558Z,53.20
2023-01-03T12:02:29.028Z,53.00
2023-01-03T12:05:08.916Z,52.90
2023-01-03T12:07:52.426Z,52.40
2023-01-03T12:10:26.578Z,52.80
2023-01-03T12:13:16.944Z,54.10
2023-01-03T12:15:48.617Z,52.50
2023-01-03T12:18:24.983Z,53.60
2023-01-03T12:21:00.727Z,53.30
2023-01-03T12:23:42.946Z,52.60
2023-01-03T12:26:14.239Z,53.80
2023-01-03T12:28:51.619Z,53.80
2023-01-03T12:31:31.924Z,53.00
2023-01-03T12:34:17.007Z,52.80
2023-01-03T12:36:54.895Z,52.40
2023-01-03T12:39:38.298Z,52.40
2023-01-03T12:42:15.276Z,52.50
2023-01-03T12:44:46.330Z,53.10
2023-01-03T12:47:22.703Z,53.00
2023-01-03T12:49:57.094Z,52.90
2023-01-03T12:52:28.032Z,52.80
2023-01-03T12:55:02.208Z,52.60
2023-01-03T12:57:45.211Z,52.20
2023-01-03T13:00:23.797Z,51.50
2023-01-03T13:02:56.506Z,52.80
2023-01-03T13:05:31.917Z,52.90
2023-01-03T13:08:07.909Z,53.30
2023-01-03T13:10:41.948Z,53.30
2023-01-03T13:13:17.008Z,52.70
2023-01-03T13:15:46.546Z,52.40
2023-01-03T13:18:19.275Z,52.50
2023-01-03T13:20:50.438Z,52.10
2023-01-03T13:23:34.917Z,52.60
2023-01-03T13:26:24.284Z,52.30
2023-01-03T13:29:35.574Z,51.40
2023-01-03T13:32:05.739Z,51.30
2023-01-03T13:34:35.959Z,49.90
2023-01-03T13:37:19.261Z,49.90
2023-01-03T13:40:52.064Z,50.00
2023-01-03T13:43:19.362Z,51.50
2023-01-03T13:45:57.996Z,51.20
2023-01-03T13:48:34.105Z,51.40
2023-01-03T13:51:38.362Z,51.40
2023-01-03T13:54:35.615Z,50.50
2023-01-03T13:57:27.076Z,49.80
2023-01-03T13:59:58.389Z,50.90
2023-01-03T14:02:55.181Z,50.90
2023-01-03T14:05:50.993Z,50.20
2023-01-03T14:08:48.017Z,50.50
2023-01-03T14:11:37.307Z,50.70
2023-01-03T14:14:11.597Z,50.70
2023-01-03T14:16:46.572Z,51.10
2023-01-03T14:19:25.893Z,51.00
2023-01-03T14:22:14.221Z,50.30
2023-01-03T14:24:50.197Z,50.40
2023-01-03T14:27:22.109Z,50.70
2023-01-03T14:29:55.853Z,50.90
2023-01-03T14:32:32.055Z,50.40
2023-01-03T14:35:04.856Z,50.80
2023-01-03T14:37:34.933Z,50.60
2023-01-03T14:40:05.691Z,50.80
2023-01-03T14:42:33.994Z,50.90
2023-01-03T14:45:09.002Z,51.10
2023-01-03T14:47:40.384Z,50.80
2023-01-03T14:50:15.588Z,51.00
2023-01-03T14:52:45.760Z,51.60
2023-01-03T14:55:17.893Z,51.20
2023-01-03T14:57:48.785Z,51.50
2023-01-03T15:00:24.243Z,51.60
2023-01-03T15:02:58.985Z,51.60
2023-01-03T15:05:30.852Z,51.90
2023-01-03T15:08:10.161Z,51.60
2023-01-03T15:10:45.197Z,51.40
2023-01-03T15:13:20.967Z,51.60
2023-01-03T15:15:56.671Z,51.60
2023-01-03T15:18:27.777Z,51.70
2023-01-03T15:20:58.337Z,51.70
2023-01-03T15:23:41.216Z,51.70
2023-01-03T15:26:21.989Z,51.70
2023-01-03T15:28:53.782Z,51.60
2023-01-03T15:31:37.414Z,51.80
2023-01-03T15:34:15.419Z,52.10
2023-01-03T15:36:48.368Z,51.80
2023-01-03T15:39:19.788Z,52.00
2023-01-03T15:42:35.072Z,51.90
2023-01-03T15:44:55.084Z,51.90
2023-01-03T15:47:30.042Z,52.00
2023-01-03T15:50:01.277Z,52.20
2023-01-03T15:52:29.734Z,52.00
2023-01-03T15:54:58.323Z,52.10
2023-01-03T15:57:34.178Z,51.60
2023-01-03T16:00:05.567Z,52.10
2023-01-03T16:02:35.652Z,52.00
2023-01-03T16:05:08.143Z,52.10
2023-01-03T16:07:37.319Z,52.20
2023-01-03T16:10:06.374Z,52.00
2023-01-03T16:12:37.966Z,51.90
2023-01-03T16:15:08.671Z,51.90
2023-01-03T16:17:38.891Z,52.00
2023-01-03T16:20:08.028Z,51.90
2023-01-03T16:22:37.238Z,52.40
2023-01-03T16:25:07.623Z,52.20
2023-01-03T16:27:35.982Z,52.10
2023-01-03T16:30:04.535Z,52.20
2023-01-03T16:32:34.300Z,52.00
2023-01-03T16:35:13.342Z,52.30
2023-01-03T16:37:42.115Z,52.00
2023-01-03T16:40:15.870Z,52.30
2023-01-03T16:42:45.005Z,52.10
2023-01-03T16:45:13.786Z,52.20
2023-01-03T16:47:44.337Z,52.40
2023-01-03T16:50:18.385Z,52.40
2023-01-03T16:52:50.031Z,52.70
2023-01-03T16:55:24.971Z,52.60
2023-01-03T16:57:54.868Z,52.70
2023-01-03T17:00:25.662Z,52.70
2023-01-03T17:02:55.839Z,52.40
2023-01-03T17:05:26.957Z,52.90
2023-01-03T17:08:02.730Z,53.40
2023-01-03T17:10:34.385Z,53.40
2023-01-03T17:13:10.475Z,52.90
2023-01-03T17:15:41.469Z,53.30
2023-01-03T17:18:18.534Z,53.10
2023-01-03T17:20:52.644Z,52.70
2023-01-03T17:23:22.109Z,52.70
2023-01-03T17:25:50.686Z,53.10
2023-01-03T17:28:20.019Z,53.20
2023-01-03T17:30:51.268Z,53.00
2023-01-03T17:33:20.381Z,52.90
2023-01-03T17:35:50.548Z,52.90
2023-01-03T17:38:27.117Z,53.10
2023-01-03T17:40:58.098Z,52.80
2023-01-03T17:43:31.309Z,52.80
2023-01-03T17:46:23.402Z,53.00
2023-01-03T17:49:10.969Z,53.60
2023-01-03T17:51:40.792Z,53.10
2023-01-03T17:54:10.215Z,53.60
2023-01-03T17:56:40.617Z,53.30
2023-01-03T17:59:13.545Z,53.30
2023-01-03T18:01:43.294Z,53.10
2023-01-03T18:04:12.061Z,53.30
2023-01-03T18:06:42.167Z,53.40
2023-01-03T18:09:16.143Z,53.20
2023-01-03T18:11:44.715Z,53.50
2023-01-03T18:14:15.308Z,53.70
2023-01-03T18:16:47.656Z,53.70
2023-01-03T18:19:19.789Z,53.80
2023-01-03T18:21:50.279Z,53.50
2023-01-03T18:24:21.826Z,53.70
2023-01-03T18:26:53.017Z,53.60
2023-01-03T18:29:21.408Z,53.40
2023-01-03T18:31:49.951Z,53.70
2023-01-03T18:34:18.195Z,54.00
2023-01-03T18:36:51.739Z,53.60
2023-01-03T18:39:26.397Z,53.90
2023-01-03T18:42:16.142Z,54.00
2023-01-03T18:44:44.751Z,53.80
2023-01-03T18:47:14.831Z,53.80
2023-01-03T18:49:43.347Z,53.70
2023-01-03T18:52:24.315Z,53.60
2023-01-03T18:54:53.424Z,53.90
2023-01-03T18:57:23.195Z,54.20
2023-01-03T18:59:51.730Z,54.00
2023-01-03T19:02:21.933Z,54.00
2023-01-03T19:04:51.901Z,53.90
2023-01-03T19:07:29.375Z,53.90
2023-01-03T19:09:57.986Z,53.90
2023-01-03T19:12:27.752Z,53.90
2023-01-03T19:14:56.522Z,54.00
2023-01-03T19:17:25.396Z,53.90
2023-01-03T19:19:56.825Z,54.20
2023-01-03T19:22:30.058Z,54.00
2023-01-03T19:25:02.853Z,54.10
2023-01-03T19:27:37.041Z,54.00
2023-01-03T19:30:08.165Z,54.30
2023-01-03T19:32:38.517Z,54.30
2023-01-03T19:35:15.367Z,54.20
2023-01-03T19:37:45.366Z,54.50
2023-01-03T19:40:18.255Z,54.70
2023-01-03T19:42:55.053Z,55.00
2023-01-03T19:45:28.327Z,54.70
2023-01-03T19:47:57.823Z,54.90
2023-01-03T19:50:27.925Z,55.00
2023-01-03T19:52:58.228Z,54.80
2023-01-03T19:55:30.779Z,54.60
2023-01-03T19:58:00.924Z,54.70
2023-01-03T20:00:32.246Z,54.60
2023-01-03T20:03:04.041Z,54.90
2023-01-03T20:05:36.263Z,54.70
2023-01-03T20:08:12.161Z,54.80
2023-01-03T20:10:43.136Z,54.80
2023-01-03T20:13:17.434Z,54.70
2023-01-03T20:15:47.178Z,54.50
2023-01-03T20:18:28.430Z,54.80
2023-01-03T20:21:00.362Z,54.60
2023-01-03T20:23:33.966Z,54.80
2023-01-03T20:26:02.643Z,54.70
2023-01-03T20:28:31.188Z,54.60
2023-01-03T20:31:00.532Z,54.60
2023-01-03T20:33:29.654Z,54.70
2023-01-03T20:36:14.860Z,54.80
2023-01-03T20:38:51.383Z,54.90
2023-01-03T20:41:20.271Z,54.90
2023-01-03T20:43:50.315Z,54.60
2023-01-03T20:46:21.983Z,54.70
2023-01-03T20:48:59.661Z,54.80
2023-01-03T20:51:30.522Z,54.80
2023-01-03T20:54:00.561Z,54.80
2023-01-03T20:56:32.845Z,54.90
2023-01-03T20:59:01.641Z,54.70
2023-01-03T21:01:31.112Z,54.80
2023-01-03T21:03:59.924Z,54.90
2023-01-03T21:06:29.527Z,54.80
2023-01-03T21:08:59.308Z,54.60
2023-01-03T21:11:29.758Z,54.90
2023-01-03T21:13:59.688Z,55.20
2023-01-03T21:16:34.039Z,55.30
2023-01-03T21:19:04.727Z,55.10
2023-01-03T21:21:33.904Z,55.00
2023-01-03T21:24:06.917Z,55.30
2023-01-03T21:26:35.494Z,55.10
2023-01-03T21:29:04.283Z,55.00
2023-01-03T21:31:34.369Z,55.10
2023-01-03T21:34:03.040Z,55.50
2023-01-03T21:36:33.258Z,55.00
2023-01-03T21:39:03.748Z,55.00
2023-01-03T21:41:34.695Z,55.10
2023-01-03T21:44:05.228Z,55.20
2023-01-03T21:46:33.805Z,55.30
2023-01-03T21:49:02.104Z,55.40
2023-01-03T21:51:38.445Z,55.40
2023-01-03T21:54:09.565Z,55.10
2023-01-03T21:56:45.702Z,55.80
2023-01-03T21:59:15.037Z,55.70
2023-01-03T22:02:01.849Z,55.80
2023-01-03T22:04:30.785Z,55.70
2023-01-03T22:07:01.231Z,55.60
2023-01-03T22:09:50.186Z,55.80
2023-01-03T22:12:19.774Z,55.80
2023-01-03T22:14:48.689Z,55.80
2023-01-03T22:17:17.207Z,55.40
2023-01-03T22:19:45.793Z,55.80
2023-01-03T22:22:14.008Z,55.70
2023-01-03T22:24:43.832Z,56.00
2023-01-03T22:27:12.227Z,56.00
2023-01-03T22:29:40.609Z,56.00
2023-01-03T22:32:11.559Z,56.00
2023-01-03T22:34:40.286Z,56.10
2023-01-03T22:37:08.792Z,56.00
2023-01-03T22:39:40.053Z,56.00
2023-01-03T22:42:14.541Z,56.30
2023-01-03T22:44:45.952Z,56.50
2023-01-03T22:47:14.353Z,56.30
2023-01-03T22:49:42.708Z,56.10
2023-01-03T22:52:11.195Z,56.20
2023-01-03T22:54:39.545Z,56.50
2023-01-03T22:57:09.063Z,56.20
2023-01-03T22:59:37.700Z,56.60
2023-01-03T23:02:06.107Z,56.40
2023-01-03T23:04:37.775Z,56.60
2023-01-03T23:07:06.869Z,56.40
2023-01-03T23:09:35.168Z,56.80
2023-01-03T23:12:20.875Z,56.80
2023-01-03T23:14:50.719Z,56.60
2023-01-03T23:17:36.867Z,56.60
2023-01-03T23:20:08.613Z,56.70
2023-01-03T23:22:36.998Z,56.70
2023-01-03T23:25:06.124Z,56.60
2023-01-03T23:27:37.101Z,56.50
2023-01-03T23:30:08.516Z,56.30
2023-01-03T23:32:36.926Z,56.50
2023-01-03T23:35:06.438Z,56.50
2023-01-03T23:37:40.060Z,56.80
2023-01-03T23:40:11.351Z,56.90
2023-01-03T23:42:40.163Z,56.50
2023-01-03T23:45:11.764Z,56.80
2023-01-03T23:47:41.927Z,56.80
2023-01-03T23:50:10.547Z,56.70
2023-01-03T23:52:38.925Z,56.70
2023-01-03T23:55:12.606Z,56.80
2023-01-03T23:57:41.647Z,56.60
